createdAt,value
2018-09-10T00:01:01.682Z,83.72
2018-09-10T00:03:30.204Z,83.44
2018-09-10T00:05:58.857Z,83.37
2018-09-10T00:08:27.258Z,83.17
2018-09-10T00:10:55.592Z,83.23
2018-09-10T00:13:23.987Z,82.62
2018-09-10T00:15:52.345Z,82.86
2018-09-10T00:18:20.730Z,83.63
2018-09-10T00:20:49.065Z,83.56
2018-09-10T00:23:17.464Z,83.75
2018-09-10T00:25:45.919Z,84.12
2018-09-10T00:28:14.376Z,84.41
2018-09-10T00:30:42.656Z,83.77
2018-09-10T00:33:11.015Z,83.92
2018-09-10T00:35:39.426Z,83.65
2018-09-10T00:38:07.830Z,83.67
2018-09-10T00:40:36.257Z,83.18
2018-09-10T00:43:04.809Z,84.22
2018-09-10T00:45:33.214Z,84.09
2018-09-10T00:48:01.626Z,84.54
2018-09-10T00:50:29.986Z,84.16
2018-09-10T00:52:58.338Z,84.13
2018-09-10T00:55:26.762Z,83.98
2018-09-10T00:57:55.117Z,83.55
2018-09-10T01:00:30.027Z,83.59
2018-09-10T01:02:58.444Z,83.63
2018-09-10T01:05:26.801Z,83.49
2018-09-10T01:07:55.460Z,83.85
2018-09-10T01:10:23.840Z,83.24
2018-09-10T01:12:52.295Z,83.80
2018-09-10T01:15:20.609Z,83.89
2018-09-10T01:17:48.961Z,84.32
2018-09-10T01:20:17.662Z,84.65
2018-09-10T01:22:45.974Z,84.87
2018-09-10T01:25:14.299Z,85.54
2018-09-10T01:27:42.704Z,84.82
2018-09-10T01:30:11.187Z,83.73
2018-09-10T01:32:39.527Z,83.31
2018-09-10T01:35:08.382Z,83.54
2018-09-10T01:37:37.044Z,84.14
2018-09-10T01:40:05.524Z,84.75
2018-09-10T01:42:33.958Z,84.12
2018-09-10T01:45:02.683Z,84.49
2018-09-10T01:47:31.193Z,85.01
2018-09-10T01:49:59.585Z,85.81
2018-09-10T01:52:28.753Z,85.39
2018-09-10T01:54:57.131Z,84.95
2018-09-10T01:57:25.488Z,84.68
2018-09-10T01:59:53.852Z,85.07
2018-09-10T02:02:22.219Z,84.57
2018-09-10T02:04:50.552Z,84.94
2018-09-10T02:07:18.925Z,85.03
2018-09-10T02:09:47.269Z,85.24
2018-09-10T02:12:21.161Z,85.95
2018-09-10T02:14:49.544Z,86.42
2018-09-10T02:17:17.967Z,86.57
2018-09-10T02:19:46.432Z,85.77
2018-09-10T02:22:14.811Z,85.42
2018-09-10T02:24:43.167Z,84.63
2018-09-10T02:27:11.484Z,84.79
2018-09-10T02:29:39.930Z,84.92
2018-09-10T02:32:08.383Z,84.75
2018-09-10T02:34:36.750Z,85.75
2018-09-10T02:37:05.448Z,85.46
2018-09-10T02:39:33.939Z,84.73
2018-09-10T02:42:02.478Z,85.67
2018-09-10T02:44:30.843Z,85.79
2018-09-10T02:46:59.189Z,86.01
2018-09-10T02:49:27.566Z,85.14
2018-09-10T02:51:55.883Z,85.89
2018-09-10T02:54:24.212Z,85.86
2018-09-10T02:56:52.546Z,85.94
2018-09-10T02:59:20.859Z,85.79
2018-09-10T03:01:49.230Z,85.92
2018-09-10T03:04:17.540Z,85.91
2018-09-10T03:06:45.878Z,86.12
2018-09-10T03:09:14.247Z,86.08
2018-09-10T03:11:42.580Z,85.55
2018-09-10T03:14:10.913Z,85.72
2018-09-10T03:16:42.190Z,84.94
2018-09-10T03:19:10.483Z,84.65
2018-09-10T03:21:38.915Z,84.95
2018-09-10T03:24:07.312Z,85.58
2018-09-10T03:26:35.976Z,85.75
2018-09-10T03:29:04.291Z,85.81
2018-09-10T03:31:32.708Z,84.47
2018-09-10T03:34:01.144Z,85.58
2018-09-10T03:36:29.470Z,87.39
2018-09-10T03:38:57.808Z,87.71
2018-09-10T03:41:26.133Z,87.01
2018-09-10T03:43:54.471Z,86.71
2018-09-10T03:46:23.878Z,86.05
2018-09-10T03:49:04.714Z,86.20
2018-09-10T03:51:33.193Z,86.18
2018-09-10T03:54:01.895Z,85.74
2018-09-10T03:56:30.346Z,85.93
2018-09-10T03:58:58.715Z,86.20
2018-09-10T04:01:27.096Z,85.75
2018-09-10T04:03:55.410Z,85.78
2018-09-10T04:06:23.809Z,85.97
2018-09-10T04:08:52.308Z,86.40
2018-09-10T04:11:20.654Z,86.60
2018-09-10T04:13:48.998Z,86.09
2018-09-10T04:16:17.336Z,85.61
2018-09-10T04:18:46.197Z,85.47
2018-09-10T04:21:14.733Z,85.46
2018-09-10T04:23:43.130Z,86.12
2018-09-10T04:26:11.547Z,86.20
2018-09-10T04:28:39.874Z,85.47
2018-09-10T04:31:08.185Z,85.49
2018-09-10T04:33:36.661Z,85.85
2018-09-10T04:36:05.176Z,85.77
2018-09-10T04:38:33.606Z,86.47
2018-09-10T04:41:01.986Z,86.68
2018-09-10T04:43:31.033Z,86.31
2018-09-10T04:45:59.412Z,86.10
2018-09-10T04:48:27.904Z,85.29
2018-09-10T04:50:56.425Z,85.74
2018-09-10T04:53:25.043Z,86.25
2018-09-10T04:55:53.378Z,86.27
2018-09-10T04:58:21.811Z,86.21
2018-09-10T05:00:50.276Z,85.55
2018-09-10T05:03:18.659Z,85.17
2018-09-10T05:05:47.006Z,84.93
2018-09-10T05:08:15.326Z,85.11
2018-09-10T05:10:43.661Z,84.88
2018-09-10T05:13:12.088Z,85.37
2018-09-10T05:15:40.683Z,85.26
2018-09-10T05:18:09.182Z,84.97
2018-09-10T05:20:37.552Z,85.50
2018-09-10T05:23:06.427Z,85.58
2018-09-10T05:25:34.993Z,85.38
2018-09-10T05:28:03.341Z,85.29
2018-09-10T05:30:31.696Z,84.79
2018-09-10T05:33:00.123Z,84.78
2018-09-10T05:35:28.511Z,85.49
2018-09-10T05:37:56.938Z,84.58
2018-09-10T05:47:22.727Z,83.57
2018-09-10T05:49:51.137Z,83.91
2018-09-10T05:52:19.683Z,83.69
2018-09-10T05:54:48.989Z,83.71
2018-09-10T05:57:17.327Z,83.43
2018-09-10T05:59:45.706Z,83.40
2018-09-10T06:02:14.078Z,83.40
2018-09-10T06:04:42.622Z,82.91
2018-09-10T06:07:11.091Z,81.92
2018-09-10T06:09:39.521Z,80.62
2018-09-10T06:12:07.949Z,81.09
2018-09-10T06:14:36.274Z,80.76
2018-09-10T06:17:04.635Z,80.84
2018-09-10T06:19:32.993Z,80.58
2018-09-10T06:22:01.319Z,79.29
2018-09-10T06:24:29.634Z,78.75
2018-09-10T06:26:58.037Z,78.14
2018-09-10T06:29:26.428Z,77.48
2018-09-10T06:31:54.796Z,76.83
2018-09-10T06:34:23.258Z,75.98
2018-09-10T06:36:51.584Z,75.14
2018-09-10T06:39:19.954Z,76.47
2018-09-10T06:41:48.310Z,76.35
2018-09-10T06:44:16.756Z,76.38
2018-09-10T06:46:45.137Z,75.52
2018-09-10T06:49:13.743Z,75.64
2018-09-10T06:51:42.049Z,75.55
2018-09-10T06:54:10.609Z,75.70
2018-09-10T06:56:39.528Z,75.46
2018-09-10T06:59:08.146Z,74.34
2018-09-10T07:01:36.688Z,74.99
2018-09-10T07:04:05.162Z,74.42
2018-09-10T07:06:33.727Z,74.16
2018-09-10T07:09:02.155Z,72.94
2018-09-10T07:11:30.658Z,73.85
2018-09-10T07:13:59.052Z,73.40
2018-09-10T07:16:27.496Z,73.32
2018-09-10T07:18:55.849Z,73.04
2018-09-10T07:21:24.226Z,71.83
2018-09-10T07:23:52.618Z,71.62
2018-09-10T07:26:21.009Z,71.77
2018-09-10T07:28:49.482Z,71.68
2018-09-10T07:31:17.772Z,71.50
2018-09-10T07:33:46.246Z,71.25
2018-09-10T07:36:14.579Z,72.05
2018-09-10T07:38:43.170Z,71.20
2018-09-10T07:41:11.494Z,71.57
2018-09-10T07:43:39.936Z,71.39
2018-09-10T07:46:08.267Z,71.67
2018-09-10T07:48:36.646Z,71.44
2018-09-10T07:51:04.971Z,64.75
2018-09-10T07:53:33.316Z,60.92
2018-09-10T07:56:01.934Z,61.32
2018-09-10T07:58:30.478Z,59.27
2018-09-10T08:00:58.844Z,59.43
2018-09-10T08:03:27.283Z,58.02
2018-09-10T08:05:55.613Z,58.56
2018-09-10T08:08:24.257Z,58.59
2018-09-10T08:10:52.736Z,57.07
2018-09-10T08:13:22.229Z,56.91
2018-09-10T08:15:50.761Z,56.83
2018-09-10T08:19:43.622Z,57.10
2018-09-10T08:22:12.176Z,56.98
2018-09-10T08:24:40.625Z,56.36
2018-09-10T08:27:09.208Z,56.77
2018-09-10T08:29:37.546Z,56.20
2018-09-10T08:32:06.023Z,56.06
2018-09-10T08:34:34.389Z,53.31
2018-09-10T08:37:03.106Z,54.70
2018-09-10T08:39:31.491Z,54.31
2018-09-10T08:41:59.874Z,53.48
2018-09-10T08:44:28.615Z,54.34
2018-09-10T08:46:57.111Z,57.06
2018-09-10T08:49:25.786Z,57.15
2018-09-10T08:51:54.145Z,58.90
2018-09-10T08:54:22.603Z,57.77
2018-09-10T08:56:50.991Z,59.23
2018-09-10T08:59:19.345Z,59.70
2018-09-10T09:01:47.701Z,59.38
2018-09-10T09:04:16.006Z,59.89
2018-09-10T09:06:44.678Z,58.46
2018-09-10T09:09:13.072Z,61.03
2018-09-10T09:11:41.488Z,60.17
2018-09-10T09:14:09.906Z,59.89
2018-09-10T09:16:38.246Z,59.74
2018-09-10T09:19:06.597Z,59.19
2018-09-10T09:21:34.915Z,58.82
2018-09-10T09:24:03.258Z,58.03
2018-09-10T09:26:31.612Z,56.27
2018-09-10T09:28:59.930Z,57.32
2018-09-10T09:31:28.269Z,55.15
2018-09-10T09:33:56.586Z,55.87
2018-09-10T09:36:30.271Z,55.35
2018-09-10T09:39:03.959Z,55.49
2018-09-10T09:41:37.458Z,54.96
2018-09-10T09:44:11.079Z,54.91
2018-09-10T09:46:39.503Z,53.74
2018-09-10T09:49:07.938Z,50.32
2018-09-10T09:51:36.277Z,49.97
2018-09-10T09:54:04.983Z,49.67
2018-09-10T09:56:33.412Z,51.25
2018-09-10T09:59:01.755Z,49.68
2018-09-10T10:01:35.343Z,51.25
2018-09-10T10:04:08.598Z,50.42
2018-09-10T10:06:37.238Z,50.70
2018-09-10T10:09:08.842Z,49.13
2018-09-10T10:11:37.565Z,49.42
2018-09-10T10:14:06.258Z,50.03
2018-09-10T10:16:34.706Z,45.96
2018-09-10T10:19:02.981Z,46.34
2018-09-10T10:21:31.403Z,48.35
2018-09-10T10:23:59.907Z,46.04
2018-09-10T10:26:28.268Z,46.23
2018-09-10T10:28:56.767Z,46.70
2018-09-10T10:31:25.235Z,47.07
2018-09-10T10:33:53.570Z,47.40
2018-09-10T10:36:21.922Z,47.12
2018-09-10T10:38:50.263Z,46.20
2018-09-10T10:41:18.628Z,46.89
2018-09-10T10:43:46.936Z,47.43
2018-09-10T10:46:15.253Z,47.32
2018-09-10T10:48:43.728Z,47.94
2018-09-10T10:51:12.151Z,48.65
2018-09-10T10:53:40.477Z,46.86
2018-09-10T10:56:08.835Z,47.28
2018-09-10T10:58:37.227Z,47.99
2018-09-10T11:01:05.544Z,47.57
2018-09-10T11:03:33.855Z,47.50
2018-09-10T11:06:02.210Z,45.76
2018-09-10T11:08:30.621Z,46.60
2018-09-10T11:10:58.982Z,45.24
2018-09-10T11:13:27.342Z,47.08
2018-09-10T11:15:55.646Z,46.55
2018-09-10T11:18:24.085Z,45.68
2018-09-10T11:20:52.409Z,46.01
2018-09-10T11:23:20.757Z,45.50
2018-09-10T11:25:49.079Z,46.04
2018-09-10T11:28:17.403Z,45.87
2018-09-10T11:30:45.709Z,44.14
2018-09-10T11:33:14.239Z,42.22
2018-09-10T11:35:42.671Z,42.85
2018-09-10T11:38:10.996Z,44.04
2018-09-10T11:40:39.342Z,42.79
2018-09-10T11:43:07.715Z,41.85
2018-09-10T11:45:42.692Z,41.70
2018-09-10T11:48:11.035Z,43.29
2018-09-10T11:50:39.346Z,44.32
2018-09-10T11:53:07.715Z,43.63
2018-09-10T11:55:36.106Z,43.51
2018-09-10T11:58:04.463Z,43.13
2018-09-10T12:00:32.869Z,44.17
2018-09-10T12:03:01.250Z,43.63
2018-09-10T12:05:29.634Z,43.28
2018-09-10T12:07:58.158Z,42.23
2018-09-10T12:10:26.594Z,41.14
2018-09-10T12:12:55.036Z,43.82
2018-09-10T12:15:23.484Z,40.22
2018-09-10T12:17:51.857Z,41.52
2018-09-10T12:20:20.179Z,41.83
2018-09-10T12:22:48.522Z,39.89
2018-09-10T12:25:16.879Z,41.19
2018-09-10T12:27:45.440Z,41.54
2018-09-10T12:30:14.079Z,42.66
2018-09-10T12:32:42.530Z,42.64
2018-09-10T12:35:11.044Z,42.60
2018-09-10T12:37:39.428Z,41.64
2018-09-10T12:40:07.806Z,41.44
2018-09-10T12:42:36.161Z,41.62
2018-09-10T12:45:04.559Z,42.08
2018-09-10T12:47:32.914Z,40.85
2018-09-10T12:50:01.298Z,40.46
2018-09-10T12:52:29.781Z,39.81
2018-09-10T12:54:58.140Z,41.05
2018-09-10T12:57:26.475Z,40.50
2018-09-10T12:59:54.835Z,42.03
2018-09-10T13:02:23.166Z,40.32
2018-09-10T13:04:51.543Z,43.32
2018-09-10T13:07:19.830Z,43.89
2018-09-10T13:09:48.220Z,40.80
2018-09-10T13:12:16.545Z,40.78
2018-09-10T13:14:46.436Z,41.12
2018-09-10T13:17:15.032Z,40.21
2018-09-10T13:19:43.658Z,41.42
2018-09-10T13:22:12.051Z,40.40
2018-09-10T13:24:54.928Z,41.03
2018-09-10T13:27:23.343Z,41.91
2018-09-10T13:29:52.117Z,42.08
2018-09-10T13:32:20.936Z,40.93
2018-09-10T13:34:49.666Z,42.22
2018-09-10T13:37:18.344Z,41.67
2018-09-10T13:39:46.899Z,42.53
2018-09-10T13:42:15.539Z,41.47
2018-09-10T13:44:44.037Z,43.19
2018-09-10T13:47:12.611Z,42.82
2018-09-10T13:49:41.309Z,41.88
2018-09-10T13:52:09.898Z,43.02
2018-09-10T13:54:38.576Z,42.15
2018-09-10T13:57:06.939Z,41.35
2018-09-10T13:59:35.312Z,43.01
2018-09-10T14:02:03.669Z,43.14
2018-09-10T14:04:31.991Z,43.97
2018-09-10T14:07:00.376Z,44.82
2018-09-10T14:09:28.727Z,45.11
2018-09-10T14:11:57.063Z,43.79
2018-09-10T14:14:25.371Z,44.30
2018-09-10T14:16:53.693Z,45.65
2018-09-10T14:19:22.203Z,45.02
2018-09-10T14:21:50.559Z,44.81
2018-09-10T14:24:18.929Z,45.50
2018-09-10T14:26:47.382Z,45.69
2018-09-10T14:29:15.819Z,46.48
2018-09-10T14:31:44.131Z,45.76
2018-09-10T14:34:12.450Z,45.94
2018-09-10T14:36:40.763Z,46.36
2018-09-10T14:39:09.647Z,46.88
2018-09-10T14:41:37.998Z,46.24
2018-09-10T14:44:06.397Z,46.60
2018-09-10T14:46:34.779Z,48.44
2018-09-10T14:49:03.149Z,48.25
2018-09-10T14:51:31.546Z,47.71
2018-09-10T14:53:59.905Z,47.76
2018-09-10T14:56:28.269Z,48.12
2018-09-10T14:58:56.562Z,49.42
2018-09-10T15:01:24.939Z,48.19
2018-09-10T15:03:53.351Z,47.90
2018-09-10T15:06:21.694Z,48.60
2018-09-10T15:08:50.039Z,50.23
2018-09-10T15:11:18.411Z,49.06
2018-09-10T15:13:46.818Z,49.35
2018-09-10T15:16:15.235Z,49.60
2018-09-10T15:18:43.640Z,49.72
2018-09-10T15:21:12.171Z,49.93
2018-09-10T15:23:40.530Z,50.17
2018-09-10T15:26:08.868Z,49.66
2018-09-10T15:28:37.447Z,50.64
2018-09-10T15:31:05.898Z,50.42
2018-09-10T15:33:34.302Z,51.17
2018-09-10T15:36:02.673Z,51.08
2018-09-10T15:38:31.078Z,51.66
2018-09-10T15:40:59.629Z,52.55
2018-09-10T15:43:27.980Z,51.73
2018-09-10T15:45:56.327Z,52.00
2018-09-10T15:48:24.635Z,52.22
2018-09-10T15:50:53.134Z,51.95
2018-09-10T15:53:21.474Z,52.80
2018-09-10T15:55:49.874Z,52.86
2018-09-10T15:58:18.353Z,52.66
2018-09-10T16:00:46.744Z,52.23
2018-09-10T16:03:15.059Z,52.30
2018-09-10T16:05:43.436Z,52.69
2018-09-10T16:08:11.985Z,52.90
2018-09-10T16:10:40.554Z,52.92
2018-09-10T16:13:08.980Z,53.33
2018-09-10T16:15:37.593Z,53.73
2018-09-10T16:18:06.143Z,53.79
2018-09-10T16:20:34.518Z,53.73
2018-09-10T16:23:02.860Z,52.67
2018-09-10T16:25:31.598Z,52.46
2018-09-10T16:28:00.206Z,52.29
2018-09-10T16:30:28.824Z,52.88
2018-09-10T16:32:57.858Z,52.79
2018-09-10T16:35:26.580Z,52.46
2018-09-10T16:37:55.040Z,53.65
2018-09-10T16:40:23.376Z,52.76
2018-09-10T16:42:51.839Z,52.74
2018-09-10T16:45:20.215Z,53.37
2018-09-10T16:47:48.520Z,54.23
2018-09-10T16:50:17.466Z,53.10
2018-09-10T16:52:45.868Z,53.50
2018-09-10T16:55:14.158Z,53.93
2018-09-10T16:57:42.632Z,54.09
2018-09-10T17:00:11.123Z,54.59
2018-09-10T17:02:39.419Z,54.21
2018-09-10T17:05:07.823Z,54.64
2018-09-10T17:07:36.187Z,54.84
2018-09-10T17:10:04.635Z,54.16
2018-09-10T17:12:33.049Z,54.04
2018-09-10T17:15:01.460Z,55.34
2018-09-10T17:17:29.832Z,56.07
2018-09-10T17:19:58.164Z,55.14
2018-09-10T17:22:26.923Z,55.26
2018-09-10T17:24:55.346Z,56.56
2018-09-10T17:27:23.685Z,56.74
2018-09-10T17:29:52.282Z,57.05
2018-09-10T17:32:20.559Z,56.56
2018-09-10T17:34:48.889Z,58.06
2018-09-10T17:37:17.211Z,56.90
2018-09-10T17:39:45.629Z,57.48
2018-09-10T17:42:13.923Z,57.21
2018-09-10T17:44:42.394Z,57.18
2018-09-10T17:47:10.807Z,57.66
2018-09-10T17:49:39.035Z,58.39
2018-09-10T17:52:07.451Z,59.22
2018-09-10T17:56:00.185Z,59.11
2018-09-10T17:58:28.603Z,60.19
2018-09-10T18:00:56.960Z,59.77
2018-09-10T18:03:25.335Z,61.04
2018-09-10T18:05:53.744Z,60.58
2018-09-10T18:08:22.534Z,61.28
2018-09-10T18:10:51.087Z,61.95
2018-09-10T18:13:19.621Z,62.52
2018-09-10T18:15:48.331Z,61.41
2018-09-10T18:18:16.738Z,62.07
2018-09-10T18:20:45.179Z,62.03
2018-09-10T18:23:13.698Z,62.17
2018-09-10T18:25:43.051Z,63.20
2018-09-10T18:28:11.504Z,63.15
2018-09-10T18:30:39.906Z,63.90
2018-09-10T18:33:08.456Z,64.10
2018-09-10T18:35:36.792Z,64.50
2018-09-10T18:38:05.239Z,64.81
2018-09-10T18:40:33.680Z,65.25
2018-09-10T18:43:02.032Z,65.18
2018-09-10T18:45:30.450Z,67.34
2018-09-10T18:47:58.865Z,66.79
2018-09-10T18:50:27.228Z,67.67
2018-09-10T18:52:55.593Z,67.51
2018-09-10T18:55:23.982Z,66.76
2018-09-10T18:57:52.733Z,67.90
2018-09-10T19:00:21.154Z,67.72
2018-09-10T19:02:49.514Z,67.04
2018-09-10T19:05:18.050Z,69.44
2018-09-10T19:07:46.477Z,69.02
2018-09-10T19:10:15.051Z,70.16
2018-09-10T19:12:43.420Z,70.56
2018-09-10T19:15:11.922Z,70.33
2018-09-10T19:17:40.317Z,70.35
2018-09-10T19:20:09.106Z,69.55
2018-09-10T19:22:37.476Z,70.26
2018-09-10T19:25:06.049Z,69.86
2018-09-10T19:27:34.519Z,69.02
2018-09-10T19:30:03.052Z,69.63
2018-09-10T19:32:31.405Z,69.50
2018-09-10T19:34:59.942Z,69.05
2018-09-10T19:37:28.527Z,68.76
2018-09-10T19:39:57.018Z,69.44
2018-09-10T19:42:26.238Z,69.71
2018-09-10T19:44:54.950Z,69.91
2018-09-10T19:47:23.412Z,69.07
2018-09-10T19:49:51.826Z,69.88
2018-09-10T19:52:20.835Z,69.53
2018-09-10T19:54:49.215Z,69.92
2018-09-10T19:57:18.145Z,69.81
2018-09-10T19:59:46.650Z,69.63
2018-09-10T20:02:15.112Z,70.87
2018-09-10T20:04:43.454Z,71.90
2018-09-10T20:07:11.857Z,72.17
2018-09-10T20:09:40.335Z,72.37
2018-09-10T20:12:09.490Z,71.83
2018-09-10T20:14:37.899Z,71.36
2018-09-10T20:17:06.540Z,71.94
2018-09-10T20:19:34.967Z,72.16
2018-09-10T20:22:03.423Z,72.77
2018-09-10T20:24:31.720Z,71.45
2018-09-10T20:27:00.404Z,72.30
2018-09-10T20:29:29.915Z,72.28
2018-09-10T20:31:58.342Z,72.64
2018-09-10T20:34:26.692Z,72.21
2018-09-10T20:36:55.324Z,72.77
2018-09-10T20:39:25.161Z,73.68
2018-09-10T20:41:53.482Z,74.31
2018-09-10T20:44:22.564Z,74.27
2018-09-10T20:46:50.866Z,73.60
2018-09-10T20:49:19.294Z,74.45
2018-09-10T20:51:47.616Z,74.42
2018-09-10T20:54:16.048Z,73.49
2018-09-10T20:56:44.580Z,73.95
2018-09-10T20:59:12.977Z,72.99
2018-09-10T21:01:41.800Z,73.77
2018-09-10T21:04:10.153Z,74.58
2018-09-10T21:06:38.471Z,74.93
2018-09-10T21:09:08.669Z,73.34
2018-09-10T21:11:36.975Z,73.10
2018-09-10T21:14:06.596Z,73.72
2018-09-10T21:16:34.903Z,73.40
2018-09-10T21:19:03.286Z,74.81
2018-09-10T21:21:31.640Z,74.02
2018-09-10T21:23:59.967Z,73.75
2018-09-10T21:26:28.303Z,74.42
2018-09-10T21:28:56.621Z,74.75
2018-09-10T21:31:25.327Z,74.26
2018-09-10T21:33:53.909Z,73.24
2018-09-10T21:36:22.224Z,73.25
2018-09-10T21:38:50.558Z,73.98
2018-09-10T21:41:18.901Z,74.14
2018-09-10T21:43:47.280Z,74.57
2018-09-10T21:46:15.630Z,76.41
2018-09-10T21:48:43.990Z,76.28
2018-09-10T21:51:12.402Z,75.68
2018-09-10T21:53:40.835Z,75.25
2018-09-10T21:56:09.115Z,75.75
2018-09-10T21:58:37.634Z,76.11
2018-09-10T22:01:05.917Z,75.88
2018-09-10T22:03:34.350Z,76.75
2018-09-10T22:06:02.649Z,77.11
2018-09-10T22:08:30.974Z,75.92
2018-09-10T22:10:59.272Z,76.22
2018-09-10T22:13:28.390Z,75.74
2018-09-10T22:15:56.689Z,76.39
2018-09-10T22:18:25.030Z,76.20
2018-09-10T22:20:53.474Z,76.00
2018-09-10T22:23:21.999Z,76.09
2018-09-10T22:25:50.303Z,76.16
2018-09-10T22:28:19.163Z,75.98
2018-09-10T22:30:47.661Z,76.87
2018-09-10T22:33:16.022Z,76.61
2018-09-10T22:35:44.377Z,76.65
2018-09-10T22:38:12.735Z,76.90
2018-09-10T22:40:41.110Z,77.30
2018-09-10T22:43:15.987Z,77.09
2018-09-10T22:45:44.330Z,77.35
2018-09-10T22:48:12.716Z,77.60
2018-09-10T22:50:41.063Z,77.91
2018-09-10T22:53:09.480Z,77.63
2018-09-10T22:55:38.285Z,77.91
2018-09-10T22:58:06.588Z,77.47
2018-09-10T23:00:35.042Z,77.80
2018-09-10T23:03:03.366Z,77.00
2018-09-10T23:05:31.758Z,77.15
2018-09-10T23:08:00.082Z,77.02
2018-09-10T23:10:28.393Z,77.78
2018-09-10T23:12:56.687Z,76.62
2018-09-10T23:15:25.084Z,77.55
2018-09-10T23:17:53.472Z,78.04
2018-09-10T23:20:21.818Z,78.02
2018-09-10T23:22:50.148Z,77.23
2018-09-10T23:25:18.471Z,77.20
2018-09-10T23:27:46.891Z,77.57
2018-09-10T23:30:15.628Z,77.97
2018-09-10T23:32:43.971Z,77.91
2018-09-10T23:35:12.315Z,77.75
2018-09-10T23:37:40.690Z,78.67
2018-09-10T23:40:09.183Z,77.99
2018-09-10T23:42:37.512Z,78.95
2018-09-10T23:45:05.866Z,78.63
2018-09-10T23:47:34.225Z,78.65
2018-09-10T23:50:02.678Z,78.64
2018-09-10T23:52:31.047Z,79.41
2018-09-10T23:54:59.402Z,79.58
2018-09-10T23:57:27.839Z,79.34
2018-09-10T23:59:56.218Z,78.20
